Time;durP1;ratioP1;P1;durP2;ratioP2;P2;SDS_P1;SDS_P2;PMS_P1;PMS_P2;Temp;Humidity;BMP_temperature;BMP_pressure;BME280_temperature;BME280_humidity;BME280_pressure;Samples;Min_cycle;Max_cycle;Signal;HPM_P1;HPM_P2
2021/06/25 00:00:43;;;;;;;1.97;1.87;;;13.80;99.90;;;;;;2099100;28;20180;-72
2021/06/25 00:01:43;;;;;;;3.73;2.00;;;13.80;99.90;;;;;;2098827;28;20783;-72
2021/06/25 00:02:44;;;;;;;1.90;1.77;;;13.90;99.90;;;;;;2098212;28;20241;-73
2021/06/25 00:03:45;;;;;;;1.87;1.77;;;13.80;99.90;;;;;;2098364;28;20172;-72
2021/06/25 00:04:46;;;;;;;1.90;1.80;;;13.80;99.90;;;;;;2099059;28;20179;-72
2021/06/25 00:05:46;;;;;;;2.63;1.80;;;13.80;99.90;;;;;;2098241;28;20180;-73
2021/06/25 00:06:47;;;;;;;3.77;1.93;;;13.80;99.90;;;;;;2098294;28;20184;-73
2021/06/25 00:07:48;;;;;;;2.87;1.60;;;13.80;99.90;;;;;;2098786;28;20277;-72
2021/06/25 00:08:49;;;;;;;1.93;1.70;;;13.80;99.90;;;;;;2099070;28;20576;-73
2021/06/25 00:09:49;;;;;;;1.77;1.67;;;13.80;99.90;;;;;;2098814;28;20642;-73
2021/06/25 00:10:51;;;;;;;1.90;1.70;;;13.70;99.90;;;;;;2098359;28;20258;-74
2021/06/25 00:11:51;;;;;;;2.58;1.85;;;13.70;99.90;;;;;;2090083;28;20227;-73
2021/06/25 00:12:52;;;;;;;2.10;1.90;;;13.80;99.90;;;;;;2098012;28;20862;-73
2021/06/25 00:13:54;;;;;;;1.60;1.50;;;13.80;99.90;;;;;;2098911;28;20544;-73
2021/06/25 00:14:55;;;;;;;2.40;1.60;;;13.70;99.90;;;;;;2098377;28;20301;-73
2021/06/25 00:15:56;;;;;;;1.87;1.77;;;13.70;99.90;;;;;;2098271;28;20779;-72
2021/06/25 00:16:56;;;;;;;1.60;1.50;;;13.70;99.90;;;;;;2098105;28;20179;-74
2021/06/25 00:18:01;;;;;;;3.07;1.83;;;13.70;99.90;;;;;;2098231;28;20206;-73
2021/06/25 00:19:02;;;;;;;1.98;1.75;;;13.70;99.90;;;;;;2106729;28;20179;-73
2021/06/25 00:20:05;;;;;;;1.97;1.63;;;13.80;99.90;;;;;;2106299;28;20685;-73
2021/06/25 00:21:06;;;;;;;2.00;1.40;;;13.80;99.90;;;;;;2099037;28;20182;-73
2021/06/25 00:22:07;;;;;;;1.50;1.40;;;13.80;99.90;;;;;;2098530;28;20172;-73
2021/06/25 00:23:08;;;;;;;1.60;1.50;;;13.80;99.90;;;;;;2097901;28;20179;-72
2021/06/25 00:24:09;;;;;;;1.98;1.88;;;13.70;99.90;;;;;;2095177;28;20226;-73
2021/06/25 00:25:11;;;;;;;1.90;1.80;;;13.70;99.90;;;;;;2089933;28;20181;-73
2021/06/25 00:26:12;;;;;;;2.25;1.50;;;13.70;99.90;;;;;;2090136;28;20230;-73
2021/06/25 00:27:12;;;;;;;1.60;1.50;;;13.70;99.90;;;;;;2098115;28;20179;-72
2021/06/25 00:28:13;;;;;;;2.07;1.90;;;13.70;99.90;;;;;;2098167;28;20196;-73
2021/06/25 00:29:14;;;;;;;1.90;1.73;;;13.70;99.90;;;;;;2098087;28;20202;-72
2021/06/25 00:30:16;;;;;;;1.90;1.80;;;13.60;99.90;;;;;;2098799;28;20573;-73
2021/06/25 00:31:16;;;;;;;1.83;1.73;;;13.60;99.90;;;;;;2098794;28;20251;-72
2021/06/25 00:32:17;;;;;;;1.60;1.50;;;13.60;99.90;;;;;;2098750;28;20180;-73
2021/06/25 00:33:18;;;;;;;1.90;1.70;;;13.50;99.90;;;;;;2098706;28;20232;-71
2021/06/25 00:34:19;;;;;;;1.80;1.70;;;13.50;99.90;;;;;;2098177;28;20183;-72
2021/06/25 00:35:19;;;;;;;2.00;1.77;;;13.50;99.90;;;;;;2098164;28;20176;-73
2021/06/25 00:36:20;;;;;;;2.00;1.90;;;13.50;99.90;;;;;;2098697;28;20555;-72
2021/06/25 00:37:21;;;;;;;1.50;1.40;;;13.50;99.90;;;;;;2098686;28;20215;-73
2021/06/25 00:38:21;;;;;;;1.50;1.40;;;13.60;99.90;;;;;;2098075;28;20187;-72
2021/06/25 00:39:22;;;;;;;1.67;1.57;;;13.60;99.90;;;;;;2097999;28;20654;-72
2021/06/25 00:40:23;;;;;;;2.37;2.00;;;13.50;99.90;;;;;;2098686;28;20268;-73
2021/06/25 00:41:24;;;;;;;1.90;1.40;;;13.50;99.90;;;;;;2098715;28;20245;-73
2021/06/25 00:42:24;;;;;;;1.87;1.43;;;13.50;99.90;;;;;;2097141;28;20179;-73
2021/06/25 00:43:25;;;;;;;2.03;1.83;;;13.60;99.90;;;;;;2097497;28;20184;-76
2021/06/25 00:44:26;;;;;;;1.77;1.67;;;13.60;99.90;;;;;;2098180;28;20172;-72
2021/06/25 00:45:27;;;;;;;1.80;1.70;;;13.60;99.90;;;;;;2089669;28;20252;-72
2021/06/25 00:46:31;;;;;;;1.97;1.80;;;13.60;99.90;;;;;;2089919;28;20519;-72
2021/06/25 00:47:32;;;;;;;1.88;1.77;;;13.60;99.90;;;;;;2090147;28;20215;-72
2021/06/25 00:48:32;;;;;;;2.00;1.80;;;13.60;99.90;;;;;;2098266;28;20176;-72
2021/06/25 00:49:34;;;;;;;2.47;1.90;;;13.70;99.90;;;;;;2098656;28;20211;-73
2021/06/25 00:50:35;;;;;;;1.98;1.88;;;13.70;99.90;;;;;;2098709;28;20176;-73
2021/06/25 00:51:36;;;;;;;2.10;1.90;;;13.70;99.90;;;;;;2098448;28;20263;-72
2021/06/25 00:52:37;;;;;;;1.73;1.60;;;13.70;99.90;;;;;;2098534;28;20226;-73
2021/06/25 00:53:41;;;;;;;1.70;1.60;;;13.70;99.90;;;;;;2098633;28;20742;-72
2021/06/25 00:54:42;;;;;;;3.80;1.80;;;13.70;99.90;;;;;;2106415;28;20186;-72
2021/06/25 00:55:43;;;;;;;1.80;1.70;;;13.70;99.90;;;;;;2106239;28;20564;-72
2021/06/25 00:56:44;;;;;;;1.70;1.60;;;13.70;99.90;;;;;;2097847;28;20434;-72
2021/06/25 00:57:46;;;;;;;1.40;1.30;;;13.70;99.90;;;;;;2097758;28;20591;-73
2021/06/25 00:58:50;;;;;;;1.80;1.65;;;13.70;99.90;;;;;;2097942;28;20204;-73
2021/06/25 00:59:51;;;;;;;1.75;1.63;;;13.70;99.90;;;;;;2097902;28;20176;-73
2021/06/25 01:00:53;;;;;;;1.70;1.60;;;13.60;99.90;;;;;;2106417;28;20199;-73
2021/06/25 01:01:54;;;;;;;1.77;1.67;;;13.50;99.90;;;;;;2106161;28;20164;-73
2021/06/25 01:02:54;;;;;;;1.60;1.50;;;13.50;99.90;;;;;;2098362;28;20535;-73
2021/06/25 01:03:55;;;;;;;1.50;1.40;;;13.40;99.90;;;;;;2098685;28;20171;-72
2021/06/25 01:04:57;;;;;;;1.40;1.30;;;13.40;99.90;;;;;;2098587;28;20643;-73
2021/06/25 01:05:58;;;;;;;1.35;1.25;;;13.50;99.90;;;;;;2098545;28;20258;-73
2021/06/25 01:06:59;;;;;;;2.03;1.40;;;13.40;99.90;;;;;;2097970;28;20176;-73
2021/06/25 01:08:00;;;;;;;1.40;1.30;;;13.50;99.90;;;;;;2097730;28;20195;-73
2021/06/25 01:09:04;;;;;;;2.25;1.30;;;13.50;99.90;;;;;;2098506;28;20168;-73
2021/06/25 01:10:09;;;;;;;1.45;1.35;;;13.50;99.90;;;;;;2097845;28;20190;-72
2021/06/25 01:11:10;;;;;;;1.30;1.20;;;13.50;99.90;;;;;;2097780;28;20180;-73
2021/06/25 01:12:12;;;;;;;1.33;1.23;;;13.40;99.90;;;;;;2089449;28;20176;-73
2021/06/25 01:13:13;;;;;;;1.35;1.23;;;13.40;99.90;;;;;;2089537;28;20180;-73
2021/06/25 01:14:14;;;;;;;1.75;1.38;;;13.40;99.90;;;;;;2089594;28;20196;-74
2021/06/25 01:15:15;;;;;;;1.60;1.50;;;13.40;99.90;;;;;;2089686;28;20576;-73
2021/06/25 01:16:16;;;;;;;1.40;1.30;;;13.40;99.90;;;;;;2097987;28;20848;-72
2021/06/25 01:17:48;;;;;;;1.40;1.30;;;13.40;99.90;;;;;;2098363;28;20568;-72
2021/06/25 01:18:49;;;;;;;2.45;1.50;;;13.30;99.90;;;;;;2097692;28;20172;-73
2021/06/25 01:19:49;;;;;;;1.53;1.43;;;13.30;99.90;;;;;;2097659;28;20167;-73
2021/06/25 01:20:54;;;;;;;1.60;1.50;;;13.30;99.90;;;;;;2098277;28;20179;-73
2021/06/25 01:21:55;;;;;;;2.17;1.98;;;13.30;99.90;;;;;;2098521;28;20163;-73
2021/06/25 01:22:57;;;;;;;1.80;1.70;;;13.30;99.90;;;;;;2098137;28;20203;-73
2021/06/25 01:23:58;;;;;;;2.30;2.10;;;13.40;99.90;;;;;;2106066;28;20677;-72
2021/06/25 01:24:58;;;;;;;2.00;1.80;;;13.40;99.90;;;;;;2106045;28;20183;-72
2021/06/25 01:25:59;;;;;;;1.90;1.80;;;13.40;99.90;;;;;;2106199;28;20262;-73
2021/06/25 01:27:00;;;;;;;2.17;1.97;;;13.30;99.90;;;;;;2105936;28;20664;-72
2021/06/25 01:28:08;;;;;;;2.20;2.00;;;13.30;99.90;;;;;;2098284;28;20200;-72
2021/06/25 01:29:08;;;;;;;2.20;1.70;;;13.30;99.90;;;;;;2097641;28;20176;-72
2021/06/25 01:30:17;;;;;;;2.00;1.90;;;13.40;99.90;;;;;;2089581;28;20176;-72
2021/06/25 01:31:18;;;;;;;2.33;1.88;;;13.40;99.90;;;;;;2097715;28;20657;-72
2021/06/25 01:32:19;;;;;;;2.20;2.00;;;13.50;99.90;;;;;;2097563;28;20192;-73
2021/06/25 01:33:20;;;;;;;2.90;1.93;;;13.50;99.90;;;;;;2097490;28;20218;-72
2021/06/25 01:34:21;;;;;;;2.08;1.70;;;13.50;99.90;;;;;;2098415;28;20184;-73
2021/06/25 01:35:22;;;;;;;1.90;1.80;;;13.50;99.90;;;;;;2097547;28;20731;-72
2021/06/25 01:36:22;;;;;;;2.20;2.00;;;13.50;99.90;;;;;;2089532;28;20218;-72
2021/06/25 01:37:23;;;;;;;2.20;2.00;;;13.50;99.90;;;;;;2097532;28;20491;-72
2021/06/25 01:38:24;;;;;;;2.67;1.80;;;13.50;99.90;;;;;;2106064;28;20667;-72
2021/06/25 01:39:27;;;;;;;1.98;1.77;;;13.60;99.90;;;;;;2097595;28;20914;-72
2021/06/25 01:40:28;;;;;;;4.03;1.90;;;13.60;99.90;;;;;;2089789;28;20215;-72
2021/06/25 01:41:29;;;;;;;1.70;1.60;;;13.60;99.90;;;;;;2089277;28;20713;-72
2021/06/25 01:42:33;;;;;;;1.60;1.50;;;13.60;99.90;;;;;;2097586;28;20202;-72
2021/06/25 01:43:38;;;;;;;1.60;1.50;;;13.50;99.90;;;;;;2098206;28;20198;-72
2021/06/25 01:44:39;;;;;;;2.05;1.85;;;13.50;99.90;;;;;;2098234;28;20278;-72
2021/06/25 01:45:42;;;;;;;1.70;1.60;;;13.60;99.90;;;;;;2097954;28;20175;-71
2021/06/25 01:46:44;;;;;;;2.00;1.90;;;13.60;99.90;;;;;;2098268;28;20244;-72
2021/06/25 01:47:46;;;;;;;1.85;1.75;;;13.50;99.90;;;;;;2098078;28;20200;-72
2021/06/25 01:48:46;;;;;;;1.88;1.77;;;13.60;99.90;;;;;;2098306;28;20179;-72
2021/06/25 01:49:47;;;;;;;2.70;2.07;;;13.60;99.90;;;;;;2098283;28;20266;-72
2021/06/25 01:50:48;;;;;;;4.10;2.10;;;13.50;99.90;;;;;;2098154;28;20701;-72
2021/06/25 01:51:49;;;;;;;1.70;1.60;;;13.50;99.90;;;;;;2098014;28;20203;-72
2021/06/25 01:52:56;;;;;;;1.97;1.77;;;13.50;99.90;;;;;;2098106;28;20180;-73
2021/06/25 01:53:57;;;;;;;2.33;2.00;;;13.50;99.90;;;;;;2097775;28;20156;-72
2021/06/25 01:54:58;;;;;;;1.87;1.70;;;13.50;99.90;;;;;;2098161;28;20183;-72
2021/06/25 01:56:01;;;;;;;2.03;1.83;;;13.50;99.90;;;;;;2097999;28;20180;-72
2021/06/25 01:57:02;;;;;;;1.80;1.45;;;13.50;99.90;;;;;;2097524;28;20711;-72
2021/06/25 01:58:19;;;;;;;2.17;1.98;;;13.50;99.90;;;;;;2089417;28;20208;-71
2021/06/25 01:59:22;;;;;;;2.72;1.80;;;13.40;99.90;;;;;;2097786;28;20179;-72
2021/06/25 02:00:23;;;;;;;3.85;1.40;;;13.40;99.90;;;;;;2097980;28;20576;-72
2021/06/25 02:01:24;;;;;;;2.55;1.60;;;13.40;99.90;;;;;;2098108;28;20782;-72
2021/06/25 02:02:25;;;;;;;1.38;1.27;;;13.40;99.90;;;;;;2097854;28;20180;-71
2021/06/25 02:03:25;;;;;;;1.20;1.10;;;13.40;99.90;;;;;;2098118;28;20175;-73
2021/06/25 02:04:26;;;;;;;1.60;1.50;;;13.40;99.90;;;;;;2097904;28;20172;-71
2021/06/25 02:05:27;;;;;;;1.40;1.30;;;13.30;99.90;;;;;;2098163;28;20259;-72
2021/06/25 02:06:28;;;;;;;1.50;1.37;;;13.20;99.90;;;;;;2097488;28;20212;-73
2021/06/25 02:07:28;;;;;;;1.60;1.50;;;13.20;99.90;;;;;;2097667;28;20189;-71
2021/06/25 02:08:29;;;;;;;1.40;1.30;;;13.20;99.90;;;;;;2098025;28;20266;-72
2021/06/25 02:09:30;;;;;;;1.67;1.57;;;13.20;99.90;;;;;;2097556;28;20180;-72
2021/06/25 02:10:31;;;;;;;1.60;1.50;;;13.20;99.90;;;;;;2089368;28;20259;-72
2021/06/25 02:11:32;;;;;;;1.60;1.50;;;13.20;99.90;;;;;;2097386;28;20180;-72
2021/06/25 02:12:33;;;;;;;1.60;1.50;;;13.20;99.90;;;;;;2097905;28;20224;-72
2021/06/25 02:13:34;;;;;;;1.50;1.40;;;13.20;99.90;;;;;;2097493;28;20187;-72
2021/06/25 02:14:35;;;;;;;1.45;1.30;;;13.20;99.90;;;;;;2089305;28;20199;-72
2021/06/25 02:15:36;;;;;;;2.58;1.73;;;13.20;99.90;;;;;;2105774;28;20713;-73
2021/06/25 02:16:37;;;;;;;2.83;1.73;;;13.20;99.90;;;;;;2097554;28;20180;-72
2021/06/25 02:17:38;;;;;;;2.30;1.80;;;13.10;99.90;;;;;;2093991;28;20208;-72
2021/06/25 02:18:38;;;;;;;1.73;1.63;;;13.20;99.90;;;;;;2097408;28;20274;-72
2021/06/25 02:19:39;;;;;;;1.53;1.37;;;13.20;99.90;;;;;;2097094;28;20180;-72
2021/06/25 02:20:40;;;;;;;1.60;1.50;;;13.20;99.90;;;;;;2097917;28;20203;-72
2021/06/25 02:21:41;;;;;;;2.40;1.67;;;13.20;99.90;;;;;;2097233;28;20176;-72
2021/06/25 02:22:41;;;;;;;1.30;1.20;;;13.30;99.90;;;;;;2088844;28;20175;-72
2021/06/25 02:23:42;;;;;;;1.80;1.60;;;13.30;99.90;;;;;;2088894;28;20172;-72
2021/06/25 02:24:43;;;;;;;2.47;1.50;;;13.30;99.90;;;;;;2089018;28;20624;-72
2021/06/25 02:25:44;;;;;;;1.73;1.33;;;13.30;99.90;;;;;;2097209;28;20175;-73
2021/06/25 02:26:45;;;;;;;1.92;1.65;;;13.30;99.90;;;;;;2086020;28;20271;-72
2021/06/25 02:27:45;;;;;;;1.60;1.50;;;13.40;99.90;;;;;;2084974;28;20208;-72
2021/06/25 02:28:46;;;;;;;1.77;1.40;;;13.40;99.90;;;;;;2085869;28;20185;-72
2021/06/25 02:29:47;;;;;;;1.50;1.40;;;13.40;99.90;;;;;;2089209;28;20241;-72
2021/06/25 02:30:48;;;;;;;1.48;1.38;;;13.40;99.90;;;;;;2097179;28;20226;-72
2021/06/25 02:31:49;;;;;;;1.40;1.30;;;13.40;99.90;;;;;;2089020;28;20199;-72
2021/06/25 02:32:50;;;;;;;1.47;1.37;;;13.40;99.90;;;;;;2088604;28;20584;-72
2021/06/25 02:33:50;;;;;;;1.60;1.50;;;13.50;99.90;;;;;;2089517;28;20207;-73
2021/06/25 02:34:51;;;;;;;1.40;1.30;;;13.50;99.90;;;;;;2089499;28;20176;-72
2021/06/25 02:35:52;;;;;;;2.30;1.50;;;13.50;99.90;;;;;;2097259;28;20175;-72
2021/06/25 02:36:53;;;;;;;1.70;1.60;;;13.50;99.90;;;;;;2096985;28;20179;-72
2021/06/25 02:37:57;;;;;;;1.83;1.40;;;13.40;99.90;;;;;;2089493;28;20647;-72
2021/06/25 02:38:57;;;;;;;1.50;1.40;;;13.40;99.90;;;;;;2097055;28;20250;-72
2021/06/25 02:39:58;;;;;;;1.57;1.47;;;13.40;99.90;;;;;;2096845;28;20179;-72
2021/06/25 02:40:59;;;;;;;2.20;1.60;;;13.40;99.90;;;;;;2096928;28;20172;-72
2021/06/25 02:42:00;;;;;;;1.60;1.50;;;13.40;99.90;;;;;;2097223;28;20179;-72
2021/06/25 02:43:01;;;;;;;1.57;1.47;;;13.30;99.90;;;;;;2096782;28;20320;-72
2021/06/25 02:44:02;;;;;;;2.17;1.67;;;13.30;99.90;;;;;;2097051;28;20243;-71
2021/06/25 02:45:05;;;;;;;1.77;1.67;;;13.30;99.90;;;;;;2088442;28;20200;-72
2021/06/25 02:46:06;;;;;;;1.90;1.80;;;13.30;99.90;;;;;;2088715;28;20176;-72
2021/06/25 02:47:07;;;;;;;1.77;1.67;;;13.30;99.90;;;;;;2089357;28;20172;-72
2021/06/25 02:48:08;;;;;;;2.03;1.80;;;13.30;99.90;;;;;;2089206;28;20196;-72
2021/06/25 02:49:08;;;;;;;2.13;1.77;;;13.30;99.90;;;;;;2089254;28;20176;-72
2021/06/25 02:50:11;;;;;;;2.37;1.50;;;13.40;99.90;;;;;;2089116;28;20546;-72
2021/06/25 02:51:11;;;;;;;1.95;1.65;;;13.40;99.90;;;;;;2088599;28;20222;-72
2021/06/25 02:52:12;;;;;;;1.53;1.43;;;13.40;99.90;;;;;;2080254;28;20591;-73
2021/06/25 02:53:13;;;;;;;3.07;1.50;;;13.30;99.90;;;;;;2088656;28;20597;-72
2021/06/25 02:54:14;;;;;;;1.77;1.67;;;13.30;99.90;;;;;;2088470;28;20588;-72
2021/06/25 02:55:15;;;;;;;1.67;1.57;;;13.30;99.90;;;;;;2088607;28;20730;-72
2021/06/25 02:56:18;;;;;;;2.00;1.80;;;13.30;99.90;;;;;;2096800;28;20260;-72
2021/06/25 02:57:18;;;;;;;3.65;1.95;;;13.30;99.90;;;;;;2096633;28;20254;-72
2021/06/25 02:58:24;;;;;;;1.60;1.50;;;13.30;99.90;;;;;;2088588;28;20184;-72
2021/06/25 02:59:25;;;;;;;2.13;1.60;;;13.30;99.90;;;;;;2088684;28;20206;-72
2021/06/25 03:00:26;;;;;;;1.50;1.40;;;13.30;99.90;;;;;;2080210;28;20209;-71
2021/06/25 03:01:26;;;;;;;1.63;1.50;;;13.40;99.90;;;;;;2088597;28;20196;-73
2021/06/25 03:02:27;;;;;;;1.50;1.40;;;13.30;99.90;;;;;;2088843;28;20259;-72
2021/06/25 03:03:28;;;;;;;1.83;1.50;;;13.30;99.90;;;;;;2089217;28;20176;-72
2021/06/25 03:04:29;;;;;;;1.40;1.30;;;13.30;99.90;;;;;;2089083;28;20184;-72
2021/06/25 03:05:29;;;;;;;1.77;1.20;;;13.30;99.90;;;;;;2088766;28;20326;-72
2021/06/25 03:06:30;;;;;;;1.60;1.43;;;13.30;99.90;;;;;;2088802;28;20184;-72
2021/06/25 03:07:31;;;;;;;2.03;1.57;;;13.30;99.90;;;;;;2089198;28;20176;-72
2021/06/25 03:08:31;;;;;;;2.80;1.67;;;13.30;99.90;;;;;;2089101;28;20234;-72
2021/06/25 03:09:32;;;;;;;2.53;1.70;;;13.40;99.90;;;;;;2088440;28;20191;-72
2021/06/25 03:10:33;;;;;;;1.40;1.30;;;13.40;99.90;;;;;;2088499;28;20238;-72
2021/06/25 03:11:34;;;;;;;1.60;1.50;;;13.40;99.90;;;;;;2096941;28;20172;-73
2021/06/25 03:12:35;;;;;;;2.60;1.70;;;13.40;99.90;;;;;;2096466;28;20187;-73
2021/06/25 03:13:36;;;;;;;1.30;1.20;;;13.40;99.90;;;;;;2096868;28;20745;-72
2021/06/25 03:14:36;;;;;;;2.07;1.50;;;13.40;99.90;;;;;;2096752;28;20176;-72
2021/06/25 03:15:37;;;;;;;1.40;1.27;;;13.40;99.90;;;;;;2089185;28;20241;-72
2021/06/25 03:16:38;;;;;;;1.60;1.20;;;13.50;99.90;;;;;;2089027;28;20180;-71
2021/06/25 03:17:39;;;;;;;1.20;1.10;;;13.40;99.90;;;;;;2089104;28;20438;-72
2021/06/25 03:18:39;;;;;;;1.30;1.20;;;13.40;99.90;;;;;;2089137;28;20210;-72
2021/06/25 03:19:40;;;;;;;1.30;1.20;;;13.40;99.90;;;;;;2089097;28;20179;-72
2021/06/25 03:20:42;;;;;;;1.07;1.00;;;13.40;99.90;;;;;;2096701;28;20290;-72
2021/06/25 03:21:43;;;;;;;1.00;0.90;;;13.40;99.90;;;;;;2096670;28;20175;-72
2021/06/25 03:22:44;;;;;;;1.17;1.07;;;13.40;99.90;;;;;;2080030;28;20748;-72
2021/06/25 03:23:45;;;;;;;1.10;1.00;;;13.40;99.90;;;;;;2088460;28;20176;-72
2021/06/25 03:24:45;;;;;;;1.25;1.15;;;13.40;99.90;;;;;;2096720;28;20775;-72
2021/06/25 03:25:46;;;;;;;1.33;1.10;;;13.40;99.90;;;;;;2088508;28;20184;-72
2021/06/25 03:26:47;;;;;;;1.00;1.00;;;13.30;99.90;;;;;;2088436;28;20188;-72
2021/06/25 03:27:48;;;;;;;1.63;1.20;;;13.30;99.90;;;;;;2089101;28;20254;-72
2021/06/25 03:28:49;;;;;;;1.30;1.20;;;13.30;99.90;;;;;;2089060;28;20211;-72
2021/06/25 03:29:49;;;;;;;1.47;1.27;;;13.40;99.90;;;;;;2089147;28;20241;-72
2021/06/25 03:30:50;;;;;;;1.30;1.20;;;13.40;99.90;;;;;;2096726;28;20279;-72
2021/06/25 03:31:51;;;;;;;1.20;1.10;;;13.40;99.90;;;;;;2088470;28;20188;-72
2021/06/25 03:32:51;;;;;;;1.10;1.00;;;13.40;99.90;;;;;;2080048;28;20173;-72
2021/06/25 03:33:52;;;;;;;1.07;1.03;;;13.40;99.90;;;;;;2088995;28;20752;-71
2021/06/25 03:34:53;;;;;;;2.20;1.30;;;13.30;99.90;;;;;;2089097;28;20183;-72
2021/06/25 03:35:53;;;;;;;1.23;1.13;;;13.30;99.90;;;;;;2089066;28;20185;-72
2021/06/25 03:36:54;;;;;;;1.10;1.00;;;13.30;99.90;;;;;;2089338;28;20194;-72
2021/06/25 03:37:55;;;;;;;1.10;1.00;;;13.40;99.90;;;;;;2089116;28;20200;-72
2021/06/25 03:38:56;;;;;;;1.47;1.20;;;13.30;99.90;;;;;;2089270;28;20191;-71
2021/06/25 03:39:57;;;;;;;1.40;1.30;;;13.30;99.90;;;;;;2088950;28;20228;-73
2021/06/25 03:40:58;;;;;;;1.30;1.20;;;13.40;99.90;;;;;;2089121;28;20255;-72
2021/06/25 03:41:58;;;;;;;1.67;1.20;;;13.40;99.90;;;;;;2089070;28;20244;-73
2021/06/25 03:42:59;;;;;;;1.20;1.10;;;13.50;99.90;;;;;;2088954;28;20165;-72
2021/06/25 03:44:00;;;;;;;1.20;1.10;;;13.40;99.90;;;;;;2088945;28;20196;-72
2021/06/25 03:45:02;;;;;;;1.57;1.20;;;13.40;99.90;;;;;;2096821;28;20186;-71
2021/06/25 03:46:03;;;;;;;1.25;1.15;;;13.40;99.90;;;;;;2096644;28;20429;-72
2021/06/25 03:47:04;;;;;;;1.97;1.13;;;13.50;99.90;;;;;;2089099;28;20651;-72
2021/06/25 03:48:05;;;;;;;1.80;1.20;;;13.40;99.90;;;;;;2088264;28;20786;-72
2021/06/25 03:49:07;;;;;;;1.17;1.05;;;13.40;99.90;;;;;;2088420;28;20667;-72
2021/06/25 03:50:11;;;;;;;1.27;1.00;;;13.40;99.90;;;;;;2096608;28;20174;-72
2021/06/25 03:51:11;;;;;;;1.23;1.13;;;13.40;99.90;;;;;;2096287;28;20516;-72
2021/06/25 03:52:12;;;;;;;1.43;1.23;;;13.40;99.90;;;;;;2080053;28;20188;-72
2021/06/25 03:53:13;;;;;;;1.10;1.00;;;13.40;99.90;;;;;;2088322;28;20302;-73
2021/06/25 03:54:13;;;;;;;1.30;1.20;;;13.40;99.90;;;;;;2096756;28;20179;-72
2021/06/25 03:55:14;;;;;;;0.90;0.90;;;13.40;99.90;;;;;;2089095;28;20187;-72
2021/06/25 03:56:15;;;;;;;1.20;1.10;;;13.40;99.90;;;;;;2088788;28;20177;-72
2021/06/25 03:57:16;;;;;;;2.38;1.02;;;13.40;99.90;;;;;;2088952;28;20415;-72
2021/06/25 03:58:17;;;;;;;1.10;1.00;;;13.40;99.90;;;;;;2088114;28;20200;-72
2021/06/25 03:59:18;;;;;;;2.10;0.90;;;13.40;99.90;;;;;;2088402;28;20647;-72
2021/06/25 04:00:19;;;;;;;1.23;0.90;;;13.40;99.90;;;;;;2088780;28;20204;-73
2021/06/25 04:01:22;;;;;;;1.85;0.90;;;13.30;99.90;;;;;;2096654;28;20211;-71
2021/06/25 04:02:23;;;;;;;1.10;1.00;;;13.20;99.90;;;;;;2096004;28;20172;-72
2021/06/25 04:03:24;;;;;;;1.53;1.03;;;13.20;99.90;;;;;;2080200;28;20247;-73
2021/06/25 04:04:25;;;;;;;1.08;0.98;;;13.20;99.90;;;;;;2088245;28;20184;-72
2021/06/25 04:05:25;;;;;;;0.97;0.90;;;13.20;99.90;;;;;;2088982;28;20282;-73
2021/06/25 04:06:26;;;;;;;1.27;1.17;;;13.10;99.90;;;;;;2088855;28;20195;-72
2021/06/25 04:07:27;;;;;;;2.00;1.00;;;13.10;99.90;;;;;;2088747;28;20172;-72
2021/06/25 04:08:29;;;;;;;1.80;1.30;;;13.10;99.90;;;;;;2088827;28;20259;-73
2021/06/25 04:09:32;;;;;;;1.73;0.90;;;13.20;99.90;;;;;;2088942;28;20552;-72
2021/06/25 04:10:33;;;;;;;1.30;1.20;;;13.20;99.90;;;;;;2096471;28;20209;-72
2021/06/25 04:11:33;;;;;;;2.97;1.17;;;13.10;99.90;;;;;;2096616;28;20172;-73
2021/06/25 04:12:35;;;;;;;2.20;1.20;;;13.10;99.90;;;;;;2088646;28;20180;-72
2021/06/25 04:13:36;;;;;;;3.75;1.20;;;13.00;99.90;;;;;;2088991;28;20184;-73
2021/06/25 04:14:37;;;;;;;1.27;1.17;;;13.00;99.90;;;;;;2088843;28;20268;-72
2021/06/25 04:15:37;;;;;;;1.60;1.50;;;13.00;99.90;;;;;;2088966;28;20596;-72
2021/06/25 04:16:38;;;;;;;1.20;1.10;;;13.00;99.90;;;;;;2088970;28;20176;-72
2021/06/25 04:17:39;;;;;;;1.23;1.13;;;13.00;99.90;;;;;;2089379;28;21531;-72
2021/06/25 04:18:40;;;;;;;1.40;1.20;;;13.00;99.90;;;;;;2081483;28;20177;-73
2021/06/25 04:19:40;;;;;;;1.33;1.20;;;13.00;99.90;;;;;;2089768;28;20176;-73
2021/06/25 04:20:44;;;;;;;1.50;1.20;;;13.00;99.90;;;;;;2090419;28;20211;-73
2021/06/25 04:21:44;;;;;;;1.40;1.30;;;13.00;99.90;;;;;;2097924;28;20705;-72
2021/06/25 04:22:45;;;;;;;1.97;1.50;;;13.00;99.90;;;;;;2097989;28;20183;-73
2021/06/25 04:23:47;;;;;;;1.50;1.40;;;13.00;99.90;;;;;;2089734;28;20183;-73
2021/06/25 04:24:50;;;;;;;1.60;1.50;;;13.00;99.90;;;;;;2097975;28;20234;-74
2021/06/25 04:25:51;;;;;;;1.98;1.75;;;12.90;99.90;;;;;;2097665;28;20180;-73
2021/06/25 04:26:52;;;;;;;1.70;1.50;;;12.80;99.90;;;;;;2093523;28;20181;-72
2021/06/25 04:27:53;;;;;;;1.70;1.60;;;12.70;99.90;;;;;;2091256;28;20214;-73
2021/06/25 04:28:54;;;;;;;1.85;1.65;;;12.70;99.90;;;;;;2082081;28;20169;-73
2021/06/25 04:29:55;;;;;;;1.60;1.50;;;12.70;99.90;;;;;;2081902;28;20170;-73
2021/06/25 04:30:55;;;;;;;1.97;1.77;;;12.80;99.90;;;;;;2082022;28;20655;-73
2021/06/25 04:31:56;;;;;;;2.33;1.70;;;12.80;99.90;;;;;;2081932;28;20227;-72
2021/06/25 04:32:59;;;;;;;1.80;1.60;;;12.80;99.90;;;;;;2081834;28;20173;-72
2021/06/25 04:34:00;;;;;;;2.65;1.65;;;12.80;99.90;;;;;;2081980;28;20169;-72
2021/06/25 04:35:01;;;;;;;2.17;1.98;;;12.90;99.90;;;;;;2081415;28;20283;-73
2021/06/25 04:36:02;;;;;;;2.30;1.57;;;12.90;99.90;;;;;;2081460;28;20212;-72
2021/06/25 04:37:04;;;;;;;1.70;1.60;;;12.90;99.90;;;;;;2082242;28;20458;-72
2021/06/25 04:38:04;;;;;;;1.77;1.52;;;13.00;99.90;;;;;;2082237;28;20200;-73
2021/06/25 04:39:06;;;;;;;1.87;1.70;;;13.00;99.90;;;;;;2082103;28;20202;-73
2021/06/25 04:40:07;;;;;;;2.55;1.60;;;13.10;99.90;;;;;;2081372;28;20201;-73
2021/06/25 04:41:08;;;;;;;1.80;1.70;;;13.10;99.90;;;;;;2082035;28;20204;-73
2021/06/25 04:42:11;;;;;;;2.30;1.70;;;13.10;99.90;;;;;;2081264;28;20604;-74
2021/06/25 04:43:14;;;;;;;1.98;1.60;;;13.10;99.90;;;;;;2081606;28;20576;-73
2021/06/25 04:44:17;;;;;;;2.08;1.88;;;13.20;99.90;;;;;;2089145;28;20176;-73
2021/06/25 04:45:17;;;;;;;1.63;1.48;;;13.20;99.90;;;;;;2081475;28;20177;-73
2021/06/25 04:46:18;;;;;;;1.97;1.77;;;13.10;99.90;;;;;;2081243;28;20188;-73
2021/06/25 04:47:19;;;;;;;1.90;1.70;;;13.20;99.90;;;;;;2081951;28;20181;-73
2021/06/25 04:48:20;;;;;;;4.97;1.77;;;13.20;99.90;;;;;;2081882;28;20173;-73
2021/06/25 04:49:21;;;;;;;2.77;1.70;;;13.20;99.90;;;;;;2082024;28;20200;-73
2021/06/25 04:50:21;;;;;;;2.33;1.80;;;13.30;99.90;;;;;;2081841;28;20668;-73
2021/06/25 04:51:22;;;;;;;2.13;1.73;;;13.30;99.90;;;;;;2081445;28;20181;-73
2021/06/25 04:52:23;;;;;;;2.77;1.70;;;13.40;99.90;;;;;;2081194;28;20238;-73
2021/06/25 04:53:24;;;;;;;1.80;1.70;;;13.40;99.90;;;;;;2081590;28;20561;-73
2021/06/25 04:54:25;;;;;;;2.00;1.50;;;13.40;99.90;;;;;;2073238;28;20197;-73
2021/06/25 04:55:25;;;;;;;1.93;1.70;;;13.40;99.90;;;;;;2081529;28;20204;-74
2021/06/25 04:56:26;;;;;;;1.90;1.80;;;13.40;99.90;;;;;;2081207;28;20594;-73
2021/06/25 04:57:27;;;;;;;2.27;1.80;;;13.40;99.90;;;;;;2073166;28;20166;-73
2021/06/25 04:58:28;;;;;;;1.60;1.47;;;13.30;99.90;;;;;;2081414;28;20434;-73
2021/06/25 04:59:29;;;;;;;2.30;1.80;;;13.30;99.90;;;;;;2089605;28;20188;-73
2021/06/25 05:00:29;;;;;;;2.17;1.77;;;13.30;99.90;;;;;;2089431;28;20242;-73
2021/06/25 05:01:30;;;;;;;1.73;1.60;;;13.30;99.90;;;;;;2089606;28;20251;-73
2021/06/25 05:02:31;;;;;;;2.00;1.63;;;13.30;99.90;;;;;;2080960;28;20192;-73
2021/06/25 05:03:33;;;;;;;1.70;1.50;;;13.40;99.90;;;;;;2081319;28;20173;-74
2021/06/25 05:04:34;;;;;;;2.00;1.52;;;13.40;99.90;;;;;;2081299;28;20639;-73
2021/06/25 05:05:37;;;;;;;1.63;1.53;;;13.50;99.90;;;;;;2081274;28;20293;-73
2021/06/25 05:06:38;;;;;;;3.00;1.60;;;13.50;99.90;;;;;;2081303;28;20181;-72
2021/06/25 05:07:39;;;;;;;2.03;1.73;;;13.50;99.90;;;;;;2072920;28;20184;-73
2021/06/25 05:08:39;;;;;;;1.50;1.40;;;13.40;99.90;;;;;;2081158;28;20264;-72
2021/06/25 05:09:40;;;;;;;1.63;1.53;;;13.40;99.90;;;;;;2080976;28;20187;-73
2021/06/25 05:10:41;;;;;;;1.20;1.10;;;13.40;99.90;;;;;;2081175;28;20185;-73
2021/06/25 05:11:42;;;;;;;1.60;1.50;;;13.40;99.90;;;;;;2081736;28;20177;-74
2021/06/25 05:12:42;;;;;;;1.50;1.40;;;13.30;99.90;;;;;;2081656;28;20573;-73
2021/06/25 05:13:43;;;;;;;1.53;1.40;;;13.30;99.90;;;;;;2081681;28;20184;-73
2021/06/25 05:14:44;;;;;;;1.60;1.50;;;13.40;99.90;;;;;;2081829;28;20203;-73
2021/06/25 05:15:45;;;;;;;1.40;1.30;;;13.40;99.90;;;;;;2081634;28;20204;-73
2021/06/25 05:16:45;;;;;;;1.70;1.53;;;13.40;99.90;;;;;;2081211;28;20191;-72
2021/06/25 05:17:49;;;;;;;1.87;1.67;;;13.50;99.90;;;;;;2081066;28;20205;-74
2021/06/25 05:18:50;;;;;;;1.88;1.58;;;13.60;99.90;;;;;;2081862;28;20318;-73
2021/06/25 05:19:50;;;;;;;1.93;1.70;;;13.60;99.90;;;;;;2081529;28;20181;-73